Randolph Air Force Base
KRND : now visible

Airfield :











YOU CAN JOIN US ON...

 
LOGIN :

Register | Disclaimer

   EN    FR    IT 

 









Legend :    VFR   Marginal VFR   IFR   Intensive IFR   Very Intensive IFR
Visi :
Ceiling :
>= 8 km
>= 3000ft
5 to 8 km
1000 to 3000 ft
1500m to 5 km
500 to 1000 ft
800 to 1500m
200 to 500 ft
< 800m
< 200 ft
Symbols :   Thunderstorms  Fog  Heavy snow  Heavy precipitations  Wind > 20 kt






- Airport Elevation : 761 ft


KRND - Randolph Air Force Base

CURRENT METAR :
  • 291656Z AUTO 03005KT 10SM SCT038 SCT047 28/18 A3011 RMK AO2 SLP189 T02780182 $

EXPIRED METARs :
  • 291556Z AUTO 35008KT 10SM CLR 28/19 A3011 RMK AO2 SLP189 T02790188 $
  • 291456Z AUTO 36009KT 10SM CLR 26/19 A3010 RMK AO2 SLP186 T02600191 50011 $

TAF TAF KRND
Valid from the 29 at 16:00 until the 30 at 22:00 UTC


291600Z 2916/3022 01009KT 9999 SCT040 SCT250 QNH3005INS
BECMG 2918/2919 03012G18KT 9999 SCT045 SCT250 QNH3001INS
BECMG 3001/3002 04009KT 9999 FEW250 QNH3002INS TX32/2922Z TN19/3012Z LAST NO AMDS AFT 2921 NEXT 3010
KZHU FIR / North America



MET'MAP, your aeronautical weather chart ! - Copyright ORBIFLY December 2007 - Disclaimer

ORBIFLY MET'MAP TEAM :

Programming & Development : Alexandra Zaïnal
Concept & original design : Baudouin d'Aumeries
Assistance for programming : Marc-Olivier Méhu
Technical & hardware support : Manuel Goepfert

Contact : metmap@orbifly.com




SOURCES & CREDITS :

   NOAA       Earth
Advisory